• Join FlightAware (Why Join?)
  • Login
  • US Flag 
04:38AM EST


 

Airport Tracker/Info


-or-


 

Live Flight TrackerFlight Track Log ✈ N197BS ✈ 27-Sep-2013 ✈ KHBG - KGVL

Flight Track Log - Related Links

Times and Time Zones

All times are in EDT time to prevent confusion due to time zone crossing. See the N197BS flight status page for this flight to view local times or setup timezone preferences in your user account.

Time Position Orientation Groundspeed Altitude Reporting Facility
EDT Latitude Longitude Course Direction KTS MPH feet Rate Location/Type
07:17PM 31.2444 -89.2561 306° West 102 117 900  Level Houston Center
07:18PM 31.2603 -89.2817 306° West 93 107 1,600 660 Climbing Houston Center
07:19PM 31.2831 -89.3036 321° Northwest 98 113 2,300 600 Climbing Houston Center
07:20PM 31.3017 -89.2944 23° Northeast 105 121 2,900 600 Climbing Houston Center
07:21PM 31.3133 -89.2706 60° Northeast 86 99 3,600 720 Climbing Houston Center
07:22PM 31.3331 -89.2394 53° Northeast 95 109 4,400 720 Climbing Houston Center
07:23PM 31.3483 -89.2125 56° Northeast 98 113 5,200 660 Climbing Houston Center
07:24PM 31.3647 -89.1853 55° Northeast 101 116 5,800 720 Climbing Houston Center
07:25PM 31.3811 -89.1581 55° Northeast 102 117 6,700 780 Climbing Houston Center
07:26PM 31.3967 -89.1297 57° Northeast 102 117 7,500 720 Climbing Houston Center
07:27PM 31.4136 -89.1014 55° Northeast 105 121 8,300 720 Climbing Houston Center
07:28PM 31.4331 -89.0675 56° Northeast 104 120 9,000 300 Climbing Houston Center
07:29PM 31.4525 -89.0319 57° Northeast 120 138 9,000  Level Houston Center
07:30PM 31.4750 -88.9944 55° Northeast 134 154 9,000  Level Houston Center
07:31PM 31.4967 -88.9586 55° Northeast 135 155 9,000  Level Houston Center
07:32PM 31.5175 -88.9219 56° Northeast 135 155 9,000  Level Houston Center
07:33PM 31.5381 -88.8861 56° Northeast 134 154 9,000  Level Houston Center
07:34PM 31.5639 -88.8431 55° Northeast 134 154 9,000  Level Houston Center
07:35PM 31.5853 -88.8064 56° Northeast 135 155 9,000  Level Houston Center
07:36PM 31.6064 -88.7694 56° Northeast 136 157 9,000  Level Houston Center
07:37PM 31.6267 -88.7333 57° Northeast 133 153 9,000  Level Houston Center
07:38PM 31.6475 -88.6961 57° Northeast 135 155 9,000  Level Houston Center
07:39PM 31.6689 -88.6603 55° Northeast 134 154 9,000  Level Houston Center
07:40PM 31.6900 -88.6239 56° Northeast 134 154 9,000  Level Houston Center
07:41PM 31.7150 -88.5803 56° Northeast 134 154 9,000  Level Houston Center
07:42PM 31.7358 -88.5428 57° Northeast 135 155 9,000  Level Houston Center
07:43PM 31.7567 -88.5075 55° Northeast 133 153 9,000  Level Houston Center
07:45PM 31.7978 -88.4369 56° Northeast 131 151 9,000  Level Atlanta Center
07:46PM 31.8200 -88.3989 55° Northeast 131 151 9,000  Level Atlanta Center
07:47PM 31.8422 -88.3608 55° Northeast 131 151 9,000  Level Atlanta Center
07:48PM 31.8644 -88.3231 55° Northeast 131 151 9,000  Level Atlanta Center
07:49PM 31.8844 -88.2872 57° Northeast 131 151 9,000 -60 Level Atlanta Center
07:50PM 31.9044 -88.2489 58° Northeast 136 157 8,900 -360 Descending Atlanta Center
07:51PM 31.9267 -88.2108 55° Northeast 141 162 8,300 -600 Descending Atlanta Center
07:52PM 31.9489 -88.1728 55° Northeast 141 162 7,700 -600 Descending Atlanta Center
07:53PM 31.9731 -88.1322 55° Northeast 141 162 7,100 -360 Descending Atlanta Center
07:54PM 31.9953 -88.0942 55° Northeast 141 162 7,000 -60 Descending Atlanta Center
07:55PM 32.0172 -88.0558 56° Northeast 141 162 7,000  Level Atlanta Center
07:56PM 32.0372 -88.0200 57° Northeast 135 155 7,000  Level Atlanta Center
07:57PM 32.0594 -87.9819 55° Northeast 135 155 7,000  Level Atlanta Center
07:58PM 32.0772 -87.9483 58° Northeast 129 148 7,000  Level Atlanta Center
07:59PM 32.0972 -87.9100 58° Northeast 129 148 7,000  Level Atlanta Center
08:00PM 32.1189 -87.8767 52° Northeast 124 143 7,000  Level Atlanta Center
08:01PM 32.1389 -87.8406 57° Northeast 124 143 7,000  Level Atlanta Center
08:02PM 32.1586 -87.8072 55° Northeast 124 143 7,000  Level Atlanta Center
08:03PM 32.1786 -87.7689 58° Northeast 124 143 7,000  Level Atlanta Center
08:04PM 32.2006 -87.7353 52° Northeast 124 143 7,000  Level Atlanta Center
08:05PM 32.2183 -87.6992 60° Northeast 124 143 7,000  Level Atlanta Center
08:06PM 32.2381 -87.6631 57° Northeast 124 143 7,000  Level Atlanta Center
08:07PM 32.2581 -87.6247 58° Northeast 124 143 7,000  Level Atlanta Center
08:08PM 32.2800 -87.5911 52° Northeast 124 143 7,000  Level Atlanta Center
08:09PM 32.2997 -87.5550 57° Northeast 124 143 7,000  Level Atlanta Center
08:10PM 32.3194 -87.5192 57° Northeast 124 143 7,000  Level Atlanta Center
08:11PM 32.3394 -87.4806 58° Northeast 124 143 7,000  Level Atlanta Center
08:12PM 32.3614 -87.4444 54° Northeast 124 143 7,000  Level Atlanta Center
08:13PM 32.3811 -87.4108 55° Northeast 124 143 7,000  Level Atlanta Center
08:14PM 32.4006 -87.3769 56° Northeast 124 143 7,000  Level Atlanta Center
08:15PM 32.4186 -87.3358 63° Northeast 137 158 7,000  Level Atlanta Center
08:16PM 32.4383 -87.2997 57° Northeast 137 158 7,000  Level Atlanta Center
08:17PM 32.4581 -87.2636 57° Northeast 137 158 7,000  Level Atlanta Center
08:18PM 32.4778 -87.2275 57° Northeast 131 151 7,000  Level Atlanta Center
08:19PM 32.4975 -87.1911 57° Northeast 131 151 7,000  Level Atlanta Center
08:20PM 32.5172 -87.1525 59° Northeast 131 151 7,000  Level Atlanta Center
08:21PM 32.5369 -87.1161 57° Northeast 126 145 7,000  Level Atlanta Center
08:22PM 32.5564 -87.0847 54° Northeast 121 139 7,000  Level Atlanta Center
08:23PM 32.5761 -87.0486 57° Northeast 121 139 7,000  Level Atlanta Center
08:24PM 32.5958 -87.0122 57° Northeast 121 139 7,000  Level Atlanta Center
08:25PM 32.6133 -86.9783 58° Northeast 121 139 7,000  Level Atlanta Center
08:27PM 32.6299 -86.9363 65° Northeast  Level FlightAware Approximate
08:34PM 32.7519 -86.6728 57° Northeast  Level FlightAware Approximate
08:35PM 32.7714 -86.6366 57° Northeast  Level FlightAware Approximate
08:36PM 32.7908 -86.6004 57° Northeast  Level FlightAware Approximate
08:36PM 32.8308 -86.5775 56° Northeast 135 155 7,000  Level Atlanta Center
08:37PM 32.8106 -86.5645 56° Northeast  Level FlightAware Approximate
08:37PM 32.8525 -86.5411 55° Northeast 130 150 7,000  Level Atlanta Center
08:38PM 32.8305 -86.5287 56° Northeast  Level FlightAware Approximate
08:38PM 32.8742 -86.5022 56° Northeast 130 150 7,000  Level Atlanta Center
08:39PM 32.8505 -86.4929 56° Northeast  Level FlightAware Approximate
08:39PM 32.8936 -86.4706 54° Northeast 130 150 7,000  Level Atlanta Center
08:40PM 32.8705 -86.4571 56° Northeast  Level FlightAware Approximate
08:40PM 32.9131 -86.4317 59° Northeast 130 150 7,000  Level Atlanta Center
08:41PM 32.8904 -86.4212 56° Northeast  Level FlightAware Approximate
08:41PM 32.9325 -86.3975 56° Northeast 130 150 7,000  Level Atlanta Center
08:42PM 32.9500 -86.3633 59° Northeast 130 150 7,000  Level Atlanta Center
08:43PM 32.9694 -86.3267 58° Northeast 125 144 7,000  Level Atlanta Center
08:44PM 32.9867 -86.2925 59° Northeast 119 137 7,000  Level Atlanta Center
08:45PM 33.0083 -86.2558 55° Northeast 119 137 7,000  Level Atlanta Center
08:46PM 33.0256 -86.2192 61° Northeast 124 143 7,000  Level Atlanta Center
08:47PM 33.0492 -86.1800 54° Northeast 124 143 7,000  Level Atlanta Center
08:48PM 33.0667 -86.1408 62° Northeast 124 143 7,000  Level Atlanta Center
08:49PM 33.0861 -86.1067 56° Northeast 124 143 7,000  Level Atlanta Center
08:50PM 33.1075 -86.0697 55° Northeast 124 143 7,000  Level Atlanta Center
08:51PM 33.1289 -86.0381 51° Northeast 124 143 7,000  Level Atlanta Center
08:52PM 33.1608 -86.0067 39° Northeast 131 151 7,000  Level Atlanta Center
08:53PM 33.1903 -85.9825 34° Northeast 131 151 7,000  Level Atlanta Center
08:54PM 33.2200 -85.9558 37° Northeast 131 151 7,000  Level Atlanta Center
08:55PM 33.2517 -85.9292 35° Northeast 131 151 7,000  Level Atlanta Center
08:56PM 33.2814 -85.9050 34° Northeast 131 151 7,000  Level Atlanta Center
08:57PM 33.3131 -85.8733 40° Northeast 131 151 7,000  Level Atlanta Center
08:58PM 33.3428 -85.8492 34° Northeast 131 151 7,000  Level Atlanta Center
08:59PM 33.3742 -85.8250 33° Northeast 131 151 7,100  Climbing Atlanta Center
09:00PM 33.3956 -85.7981 46° Northeast 131 151 7,100  Level Atlanta Center
09:01PM 33.4336 -85.7739 28° Northeast 131 151 7,100  Level Atlanta Center
09:02PM 33.4631 -85.7469 37° Northeast 131 151 7,100  Level Atlanta Center
09:03PM 33.4947 -85.7228 32° Northeast 131 151 7,100  Level Atlanta Center
09:04PM 33.5264 -85.6933 38° Northeast 131 151 7,100  Level Atlanta Center
09:05PM 33.5603 -85.6667 33° Northeast 131 151 7,100  Level Atlanta Center
09:06PM 33.5878 -85.6397 39° Northeast 131 151 7,100  Level Atlanta Center
09:07PM 33.6194 -85.6128 35° Northeast 131 151 7,100  Level Atlanta Center
09:08PM 33.6511 -85.5836 37° Northeast 131 151 7,100  Level Atlanta Center
09:09PM 33.6783 -85.5567 39° Northeast 131 151 7,100  Level Atlanta Center
09:10PM 33.7103 -85.5272 37° Northeast 131 151 7,100  Level Atlanta Center
09:11PM 33.7439 -85.5028 31° Northeast 131 151 7,100  Level Atlanta Center
09:12PM 33.7714 -85.4733 42° Northeast 131 151 7,100  Level Atlanta Center
09:13PM 33.7986 -85.4511 34° Northeast 132 152 7,100  Level Atlanta Center
09:14PM 33.8283 -85.4242 37° Northeast 132 152 7,100  Level Atlanta Center
09:15PM 33.8597 -85.3972 35° Northeast 132 152 7,100  Level Atlanta Center
09:16PM 33.8894 -85.3675 40° Northeast 132 152 7,100  Level Atlanta Center
09:17PM 33.9189 -85.3406 37° Northeast 137 158 7,100  Level Atlanta Center
09:18PM 33.9525 -85.3136 34° Northeast 137 158 7,100  Level Atlanta Center
09:19PM 33.9675 -85.2711 67° East 125 144 7,100 -60 Level Atlanta Center
09:20PM 33.9764 -85.2261 77° East 118 136 7,000 -60 Descending Atlanta Center
09:21PM 33.9850 -85.1861 75° East 124 143 7,000  Level Atlanta Center
09:22PM 33.9939 -85.1411 77° East 124 143 7,000  Level Atlanta Center
09:23PM 34.0047 -85.0961 74° East 124 143 7,000  Level Atlanta Center
09:24PM 34.0114 -85.0561 79° East 124 143 7,000  Level Atlanta Center
09:25PM 34.0219 -85.0139 73° East 124 143 7,000  Level Atlanta Center
09:26PM 34.0328 -84.9739 72° East 124 143 7,000  Level Atlanta Center
09:27PM 34.0414 -84.9289 77° East 124 143 7,000  Level Atlanta Center
09:30PM 34.0667 -84.8333 72° East 130 150 7,000  Level Atlanta TRACON
09:31PM 34.0667 -84.8000 90° East 130 150 7,000 -120 Level Atlanta TRACON
09:32PM 34.0833 -84.7500 68° East 132 152 6,800 -360 Descending Atlanta TRACON
09:33PM 34.0833 -84.7000 90° East 134 154 6,300 -540 Descending Atlanta TRACON
09:34PM 34.1000 -84.6667 59° Northeast 132 152 5,800 -540 Descending Atlanta TRACON
09:35PM 34.1000 -84.6167 90° East 136 157 5,300 -480 Descending Atlanta TRACON
09:36PM 34.1167 -84.5833 59° Northeast 133 153 5,000 -180 Descending Atlanta TRACON
09:37PM 34.1167 -84.5333 90° East 130 150 5,000  Level Atlanta TRACON
09:38PM 34.1333 -84.5000 59° Northeast 128 147 5,000  Level Atlanta TRACON
09:39PM 34.1333 -84.4500 90° East 131 151 5,000  Level Atlanta TRACON
09:39PM 34.1500 -84.4167 59° Northeast 129 148 5,000  Level Atlanta TRACON
09:40PM 34.1500 -84.3833 90° East 129 148 5,000  Level Atlanta TRACON
09:41PM 34.1667 -84.3333 68° East 127 146 5,000 -300 Level Atlanta TRACON
09:42PM 34.1667 -84.3000 90° East 137 158 4,500 -540 Descending Atlanta TRACON
09:43PM 34.1833 -84.2500 68° East 144 166 4,000 -300 Descending Atlanta TRACON
09:44PM 34.2000 -84.2167 59° Northeast 126 145 4,000  Level Atlanta TRACON
09:46PM 34.2000 -84.1667 90° East 120 138 4,000  Level Atlanta TRACON
09:47PM 34.2167 -84.1333 59° Northeast 122 140 4,000  Level Atlanta TRACON
09:47PM 34.2167 -84.1000 90° East 118 136 4,000 -120 Level Atlanta TRACON
09:49PM 34.2167 -84.0500 90° East 128 147 3,800 -240 Descending Atlanta TRACON
09:51PM 34.2304 -83.9666 72° East  Level FlightAware Approximate
09:58PM 34.2726 -83.8302 90° East  Level Estimated
09:59PM 34.2726 -83.8302 90° East  Level Estimated
10:00PM 34.2726 -83.8302 90° East  Level Estimated
10:01PM 34.2726 -83.8302 90° East  Level Estimated
10:02PM 34.2726 -83.8302 90° East  Level Estimated
10:03PM 34.2726 -83.8302 90° East  Level Estimated
10:04PM 34.2726 -83.8302 90° East  Level Estimated